Details From YBBN - Brisbane Intl
To NWWW - Noumea La Tontouta
Flight Number -
Tags Decoded
Created
Modified
Stats Distance 784 nm / 1,452 km
Max Altitude 0 ft / 0 m
Waypoints 6
Social Downloads 3
Likes 0
Share VATSIM

Download

Looking for another format? Having issues loading an existing format? Contact us
Advertisement - Login to hide

Notes

Decoded

Route

YBBN MULET ISTEM TEBUR NISAS NWWW

ID Type Via Altitude Latitude Longitude Leg Dist Tot Dist Heading (true) Name
O YBBN APT - 0 ft / 0 m -27.40786˚ 153.10379˚ - 0 nm - -
MULET FIX - 0 ft / 0 m -26.43167˚ 155.73250˚ 152 nm 152 nm 68° / 67° -
ISTEM FIX - 0 ft / 0 m -24.59750˚ 160.38333˚ 275 nm 427 nm 67° / 65° -
TEBUR FIX - 0 ft / 0 m -23.47444˚ 163.00000˚ 158 nm 586 nm 65° / 64° -
NISAS FIX - 0 ft / 0 m -22.90333˚ 164.27667˚ 78 nm 664 nm 64° / 64° -
O NWWW APT - 0 ft / 0 m -22.00756˚ 166.20102˚ 119 nm 784 nm 64° / 63° -

Altitude Profile

Advertisement - Login to hide

Weather


0- 5 10 15 20 25 30 35+ Temperature / ° C

Clouds and Precipitation
Forecast for 2018-05-26 00:00 UTC. Updated 4 hours ago

Ground ~20,000 ft ~40,000 ft Winds

YBBN

Details ICAO YBBN (BNE)
Name Brisbane Intl
Region Australia
Timezone Australia/Brisbane (UTC+10.0)
Stats Elevation 12 ft / 4 m (AMSL)
Location -27.375714° 153.127710°
Runways 2
Magnetic Variation 10.987° E

METAR

YBBN 260300Z 14009KT 9999 SCT039 BKN080 21/13 Q1025 NOSIG

Decode

TAF

TAF YBBN 252321Z 2600/2706 13012KT 9999 SCT035 FM261000 19008KT 9999 SCT030 FM262300 14010KT 9999 SCT035

Decode

Departure Runways

ID Width Length Bearing (true) Bearing (mag) Surface Threshold Offset Overrun Length
01 148 ft / 45 m 11,805 ft / 3,598 m 26.93° 15.94° Asphalt 197 ft / 60 m 0 ft / 0 m
14 98 ft / 30 m 5,787 ft / 1,764 m 145.66° 134.67° Asphalt 197 ft / 60 m 0 ft / 0 m
19 148 ft / 45 m 11,805 ft / 3,598 m 206.92° 195.93° Asphalt 0 ft / 0 m 0 ft / 0 m
32 98 ft / 30 m 5,787 ft / 1,764 m 325.66° 314.67° Asphalt 197 ft / 60 m 0 ft / 0 m

NWWW

Details ICAO NWWW (NOU)
Name Noumea La Tontouta
Region New Caledonia
Timezone Pacific/Noumea (UTC+11.0)
Stats Elevation 51 ft / 16 m (AMSL)
Location -22.014529° 166.213022°
Runways 1
Magnetic Variation 12.348° E

METAR

NWWW 260300Z AUTO 18007KT CAVOK 23/15 Q1017 NOSIG

Decode

TAF

TAF NWWW 252300Z 2600/2624 18012KT 9999 FEW025 BKN150 PROB40 TEMPO 2606/2624 RA

Decode

Destination Runways

ID Width Length Bearing (true) Bearing (mag) Surface Threshold Offset Overrun Length
11 148 ft / 45 m 10,666 ft / 3,251 m 121.21° 108.86° Asphalt 0 ft / 0 m 338 ft / 103 m
29 148 ft / 45 m 10,666 ft / 3,251 m 301.19° 288.84° Asphalt 0 ft / 0 m 354 ft / 108 m

Approach Navaids

Runway Type Ident Frequency Range Bearing (true) Bearing (mag) Slope Elevation
11 Localiser LT 109.90 MHz 18 nm / 33 km 120.69° 108.34° - 52 ft / 16 m (AMSL)
11 Glidescope LT 109.90 MHz 10 nm / 19 km 121.20° 108.85° 3.00° 24 ft / 7 m (AMSL)

Popular Alternatives